Time;durP1;ratioP1;P1;durP2;ratioP2;P2;SDS_P1;SDS_P2;PMS_P1;PMS_P2;Temp;Humidity;BMP_temperature;BMP_pressure;BME280_temperature;BME280_humidity;BME280_pressure;Samples;Min_cycle;Max_cycle;Signal;HPM_P1;HPM_P2
2023/01/02 00:00:18;;;;;;;8.77;3.13;;;11.90;99.90;;;;;;5072368;28;20091;-87
2023/01/02 00:02:44;;;;;;;5.90;2.53;;;11.90;99.90;;;;;;5073613;28;20043;-78
2023/01/02 00:05:10;;;;;;;8.55;3.00;;;12.00;99.90;;;;;;5055880;28;20029;-78
2023/01/02 00:07:37;;;;;;;8.82;2.97;;;11.90;99.90;;;;;;5053661;28;20036;-80
2023/01/02 00:10:04;;;;;;;5.63;3.20;;;11.90;99.90;;;;;;5072163;28;20044;-80
2023/01/02 00:12:30;;;;;;;5.80;3.17;;;12.00;99.90;;;;;;5037739;28;20056;-79
2023/01/02 00:14:56;;;;;;;7.32;2.70;;;11.90;99.90;;;;;;5055310;28;20033;-80
2023/01/02 00:17:23;;;;;;;10.88;3.50;;;12.00;99.90;;;;;;5077474;28;20052;-83
2023/01/02 00:19:49;;;;;;;6.40;3.60;;;12.10;99.90;;;;;;5092170;28;20495;-80
2023/01/02 00:22:15;;;;;;;8.60;3.45;;;12.10;99.90;;;;;;5074811;28;20515;-81
2023/01/02 00:24:42;;;;;;;10.25;4.95;;;12.10;99.90;;;;;;5075008;28;20059;-83
2023/01/02 00:27:08;;;;;;;8.15;3.70;;;12.00;99.90;;;;;;5091461;28;20036;-82
2023/01/02 00:29:34;;;;;;;6.53;3.47;;;12.00;99.90;;;;;;5072079;28;20035;-83
2023/01/02 00:32:00;;;;;;;16.88;6.88;;;12.00;99.90;;;;;;5092812;28;20492;-82
2023/01/02 00:34:26;;;;;;;7.40;3.47;;;12.00;99.90;;;;;;5090901;28;20032;-81
2023/01/02 00:36:52;;;;;;;7.78;3.55;;;12.00;99.90;;;;;;5091198;28;20036;-81
2023/01/02 00:39:18;;;;;;;8.65;4.15;;;12.00;99.90;;;;;;5089447;28;20036;-82
2023/01/02 00:41:45;;;;;;;7.55;4.10;;;12.00;99.90;;;;;;5093067;28;20035;-79
2023/01/02 00:44:11;;;;;;;9.43;4.35;;;11.90;99.90;;;;;;5090793;28;20048;-81
2023/01/02 00:46:37;;;;;;;6.18;3.55;;;11.90;99.90;;;;;;5092077;28;20399;-82
2023/01/02 00:49:03;;;;;;;7.15;3.15;;;11.80;99.90;;;;;;5089557;28;20507;-82
2023/01/02 00:51:29;;;;;;;7.07;3.50;;;11.80;99.90;;;;;;5091815;28;20024;-83
2023/01/02 00:53:55;;;;;;;5.55;2.75;;;11.80;99.90;;;;;;5091118;28;20047;-83
2023/01/02 00:56:21;;;;;;;9.68;3.05;;;11.80;99.90;;;;;;5078561;28;20063;-83
2023/01/02 00:58:48;;;;;;;5.43;2.72;;;11.80;99.90;;;;;;5088911;28;20048;-79
2023/01/02 01:01:14;;;;;;;8.95;3.53;;;11.80;99.90;;;;;;5092439;28;20051;-81
2023/01/02 01:03:42;;;;;;;6.68;3.13;;;11.80;99.90;;;;;;5090232;28;20484;-83
2023/01/02 01:06:09;;;;;;;7.80;3.20;;;11.80;99.90;;;;;;5090793;28;20032;-81
2023/01/02 01:08:37;;;;;;;6.97;2.92;;;11.90;99.90;;;;;;5088080;28;20055;-83
2023/01/02 01:11:09;;;;;;;7.85;3.08;;;11.90;99.90;;;;;;5074633;28;20416;-83
2023/01/02 01:13:36;;;;;;;6.90;2.67;;;11.90;99.90;;;;;;5096726;28;20036;-82
2023/01/02 01:16:14;;;;;;;5.95;2.95;;;11.90;99.90;;;;;;5089016;28;20481;-82
2023/01/02 01:18:42;;;;;;;10.50;3.28;;;12.00;99.90;;;;;;5052006;28;20090;-84
2023/01/02 01:21:14;;;;;;;9.73;2.85;;;12.10;99.90;;;;;;5054174;28;20028;-84
2023/01/02 01:23:41;;;;;;;4.78;2.58;;;12.10;99.90;;;;;;5053159;28;20052;-84
2023/01/02 01:26:11;;;;;;;6.78;2.47;;;12.10;99.90;;;;;;5054031;28;20033;-84
2023/01/02 01:28:38;;;;;;;5.65;2.65;;;12.20;99.90;;;;;;5070040;28;20691;-81
2023/01/02 01:31:08;;;;;;;6.78;2.80;;;12.20;99.90;;;;;;5071721;28;20028;-84
2023/01/02 01:33:35;;;;;;;4.63;2.83;;;12.20;99.90;;;;;;5071408;28;20041;-84
2023/01/02 01:36:06;;;;;;;10.70;3.30;;;12.20;99.90;;;;;;5037149;28;20474;-84
2023/01/02 01:38:33;;;;;;;7.57;3.05;;;12.20;99.90;;;;;;5051477;28;20405;-83
2023/01/02 01:41:00;;;;;;;8.63;3.03;;;12.20;99.90;;;;;;5055760;28;20045;-83
2023/01/02 01:43:51;;;;;;;7.60;2.60;;;12.20;99.90;;;;;;5057315;28;20037;-83
2023/01/02 01:46:20;;;;;;;7.18;3.17;;;12.20;99.90;;;;;;5075782;28;20385;-84
2023/01/02 01:48:52;;;;;;;7.22;2.83;;;12.10;99.90;;;;;;5056048;28;20595;-84
2023/01/02 01:51:19;;;;;;;8.45;2.90;;;12.00;99.90;;;;;;5075570;28;20036;-84
2023/01/02 01:53:48;;;;;;;10.57;3.50;;;12.00;99.90;;;;;;5047050;28;20049;-83
2023/01/02 01:56:16;;;;;;;5.72;2.60;;;12.00;99.90;;;;;;5073967;28;20032;-82
2023/01/02 01:58:43;;;;;;;4.47;2.50;;;12.10;99.90;;;;;;5060865;28;20029;-84
2023/01/02 02:01:12;;;;;;;7.90;2.55;;;12.10;99.90;;;;;;5065457;28;20033;-83
2023/01/02 02:03:41;;;;;;;4.70;2.53;;;12.10;99.90;;;;;;5059488;28;20266;-82
2023/01/02 02:06:07;;;;;;;6.13;3.33;;;12.10;99.90;;;;;;5058127;28;20028;-83
2023/01/02 02:08:56;;;;;;;8.57;2.90;;;12.00;99.90;;;;;;5055452;28;20398;-83
2023/01/02 02:11:22;;;;;;;9.30;2.97;;;12.00;99.90;;;;;;5053357;28;20048;-83
2023/01/02 02:13:49;;;;;;;6.35;2.28;;;12.00;99.90;;;;;;5040816;28;20408;-83
2023/01/02 02:16:15;;;;;;;7.03;2.65;;;12.00;99.90;;;;;;5044859;28;20063;-83
2023/01/02 02:18:47;;;;;;;5.90;2.40;;;12.00;99.90;;;;;;5091975;28;20040;-83
2023/01/02 02:21:36;;;;;;;6.03;2.63;;;12.10;99.90;;;;;;5094008;28;20040;-83
2023/01/02 02:24:38;;;;;;;9.32;3.45;;;12.10;99.90;;;;;;5094198;28;20028;-83
2023/01/02 02:27:32;;;;;;;5.50;2.72;;;12.00;99.90;;;;;;5091304;28;20507;-82
2023/01/02 02:30:04;;;;;;;8.82;3.33;;;12.10;99.90;;;;;;5093586;28;20051;-83
2023/01/02 02:32:59;;;;;;;6.95;2.58;;;12.20;99.90;;;;;;5094841;28;20032;-81
2023/01/02 02:35:47;;;;;;;6.40;2.97;;;12.20;99.90;;;;;;5093138;28;20036;-82
2023/01/02 02:38:48;;;;;;;6.55;2.70;;;12.20;99.90;;;;;;5091899;28;20048;-83
2023/01/02 02:41:37;;;;;;;10.52;2.72;;;12.10;99.90;;;;;;5095268;28;20046;-83
2023/01/02 02:44:45;;;;;;;6.07;2.80;;;12.10;99.90;;;;;;5093249;28;20043;-82
2023/01/02 02:47:21;;;;;;;5.63;2.75;;;12.10;99.90;;;;;;5088768;28;20040;-84
2023/01/02 02:49:56;;;;;;;5.28;2.30;;;12.00;99.90;;;;;;5093052;28;20035;-82
2023/01/02 02:52:31;;;;;;;8.55;2.55;;;12.00;99.90;;;;;;5093337;28;20051;-82
2023/01/02 02:55:27;;;;;;;5.30;2.83;;;12.00;99.90;;;;;;5092917;28;20051;-80
2023/01/02 02:57:55;;;;;;;8.63;2.75;;;12.00;99.90;;;;;;5090109;28;20051;-90
2023/01/02 03:00:22;;;;;;;6.75;2.40;;;12.00;99.90;;;;;;5076690;28;20047;-81
2023/01/02 03:02:49;;;;;;;5.18;2.58;;;11.90;99.90;;;;;;5092878;28;20047;-78
2023/01/02 03:05:36;;;;;;;4.53;2.28;;;11.90;99.90;;;;;;5094201;28;20039;-80
2023/01/02 03:08:11;;;;;;;7.05;2.22;;;12.00;99.90;;;;;;5091626;28;20043;-81
2023/01/02 03:10:46;;;;;;;6.72;3.17;;;12.00;99.90;;;;;;5093474;28;20032;-81
2023/01/02 03:13:17;;;;;;;7.38;3.25;;;11.90;99.90;;;;;;5093988;28;20040;-80
2023/01/02 03:16:32;;;;;;;4.47;2.42;;;11.90;99.90;;;;;;5092244;28;20040;-84
2023/01/02 03:19:07;;;;;;;5.82;2.70;;;11.90;99.90;;;;;;5013136;28;20055;-78
2023/01/02 03:21:35;;;;;;;4.88;2.30;;;11.90;99.90;;;;;;5083740;28;20051;-84
2023/01/02 03:24:06;;;;;;;7.53;2.65;;;11.90;99.90;;;;;;5092788;28;20047;-81
2023/01/02 03:26:34;;;;;;;7.45;3.05;;;11.80;99.90;;;;;;5092223;28;20044;-81
2023/01/02 03:29:05;;;;;;;4.55;2.33;;;11.80;99.90;;;;;;5072332;28;20037;-81
2023/01/02 03:31:36;;;;;;;6.57;2.60;;;11.80;99.90;;;;;;5092441;28;20121;-81
2023/01/02 03:34:13;;;;;;;4.88;2.67;;;11.80;99.90;;;;;;5092310;28;20044;-81
2023/01/02 03:36:44;;;;;;;9.45;2.65;;;11.80;99.90;;;;;;5091730;28;20032;-81
2023/01/02 03:39:19;;;;;;;7.43;2.25;;;11.80;99.90;;;;;;5091115;28;20028;-79
2023/01/02 03:42:19;;;;;;;6.32;1.95;;;11.90;99.90;;;;;;5093085;28;20365;-80
2023/01/02 03:44:53;;;;;;;5.25;2.30;;;12.00;99.90;;;;;;5074583;28;20044;-79
2023/01/02 03:47:32;;;;;;;5.68;2.42;;;12.00;99.90;;;;;;5092759;28;20047;-79
2023/01/02 03:50:03;;;;;;;6.45;2.33;;;12.10;99.90;;;;;;5092023;28;20040;-79
2023/01/02 03:52:29;;;;;;;4.65;2.70;;;12.00;99.90;;;;;;5092854;28;20036;-80
2023/01/02 03:54:57;;;;;;;7.72;2.50;;;12.00;99.90;;;;;;5093547;28;20370;-79
2023/01/02 03:57:44;;;;;;;4.63;2.75;;;11.80;99.90;;;;;;5091787;28;20762;-80
2023/01/02 04:00:15;;;;;;;5.20;2.53;;;11.80;99.90;;;;;;5075765;28;20481;-80
2023/01/02 04:02:58;;;;;;;4.53;2.22;;;11.90;99.90;;;;;;5085949;28;20396;-80
2023/01/02 04:05:37;;;;;;;5.60;2.25;;;11.90;99.90;;;;;;5092727;28;20032;-80
2023/01/02 04:08:23;;;;;;;5.57;2.45;;;12.00;99.90;;;;;;5090485;28;20039;-79
2023/01/02 04:10:53;;;;;;;5.28;2.53;;;12.00;99.90;;;;;;5097021;28;20028;-80
2023/01/02 04:13:26;;;;;;;8.20;2.45;;;12.00;99.90;;;;;;5092893;28;20040;-79
2023/01/02 04:15:53;;;;;;;5.70;2.47;;;11.90;99.90;;;;;;5085684;28;20050;-79
2023/01/02 04:18:25;;;;;;;8.10;2.97;;;11.90;99.90;;;;;;5064296;28;20045;-79
2023/01/02 04:20:54;;;;;;;11.43;2.80;;;11.80;99.90;;;;;;5054820;28;20033;-79
2023/01/02 04:23:40;;;;;;;8.57;4.30;;;11.80;99.90;;;;;;5066711;28;20032;-79
2023/01/02 04:26:39;;;;;;;6.50;3.45;;;11.70;99.90;;;;;;5072520;28;20029;-79
2023/01/02 04:29:05;;;;;;;4.53;2.08;;;11.70;99.90;;;;;;5009725;28;20048;-79
2023/01/02 04:31:52;;;;;;;9.27;2.88;;;11.60;99.90;;;;;;5036775;28;20045;-79
2023/01/02 04:34:19;;;;;;;7.28;2.55;;;11.60;99.90;;;;;;5040547;28;20060;-79
2023/01/02 04:36:45;;;;;;;5.28;2.63;;;11.50;99.90;;;;;;5071906;28;20028;-79
2023/01/02 04:39:11;;;;;;;6.45;2.92;;;11.50;99.90;;;;;;5071037;28;20051;-79
2023/01/02 04:41:39;;;;;;;102.28;54.60;;;11.50;99.90;;;;;;5054106;28;20036;-80
2023/01/02 04:44:05;;;;;;;16.65;6.60;;;11.40;99.90;;;;;;5053885;28;20059;-80
2023/01/02 04:46:32;;;;;;;9.15;2.92;;;11.30;99.90;;;;;;5053897;28;20044;-80
2023/01/02 04:48:58;;;;;;;6.30;2.03;;;11.30;99.90;;;;;;5052274;28;20033;-80
2023/01/02 04:51:24;;;;;;;7.60;3.45;;;11.40;99.90;;;;;;5034268;28;20033;-80
2023/01/02 04:53:52;;;;;;;13.05;4.28;;;11.30;99.90;;;;;;5053714;28;20044;-80
2023/01/02 04:56:18;;;;;;;99.28;53.67;;;11.30;99.90;;;;;;5054053;28;20053;-80
2023/01/02 04:58:45;;;;;;;187.52;90.68;;;11.30;99.90;;;;;;5051975;28;20032;-80
2023/01/02 05:01:13;;;;;;;50.65;22.50;;;11.20;99.90;;;;;;5054013;28;20033;-80
2023/01/02 05:03:40;;;;;;;9.40;3.67;;;11.10;99.90;;;;;;5071365;28;20429;-80
2023/01/02 05:06:07;;;;;;;104.90;52.70;;;11.10;99.90;;;;;;5053657;28;20048;-80
2023/01/02 05:08:34;;;;;;;23.65;11.00;;;11.10;99.90;;;;;;5069642;28;20037;-80
2023/01/02 05:11:18;;;;;;;11.65;5.25;;;11.00;99.90;;;;;;5072106;28;20036;-80
2023/01/02 05:13:44;;;;;;;17.17;6.60;;;11.10;99.90;;;;;;5064626;28;20037;-80
2023/01/02 05:16:11;;;;;;;6.88;3.80;;;11.00;99.90;;;;;;5071572;28;20386;-80
2023/01/02 05:18:38;;;;;;;250.13;127.82;;;10.90;99.90;;;;;;5051987;28;20028;-80
2023/01/02 05:23:56;;;;;;;122.18;65.32;;;10.90;99.90;;;;;;5049408;28;20370;-80
2023/01/02 05:26:22;;;;;;;59.53;32.85;;;10.90;99.90;;;;;;5072253;28;20032;-79
2023/01/02 05:28:50;;;;;;;202.02;116.85;;;10.90;99.90;;;;;;5051990;28;20043;-79
2023/01/02 05:31:16;;;;;;;128.00;72.28;;;10.80;99.90;;;;;;5071871;28;20029;-81
2023/01/02 05:33:43;;;;;;;84.75;51.50;;;10.70;99.90;;;;;;5052635;28;20060;-82
2023/01/02 05:36:09;;;;;;;13.60;5.32;;;10.70;99.90;;;;;;5037131;28;20462;-81
2023/01/02 05:38:36;;;;;;;6.78;2.42;;;10.90;99.90;;;;;;5050985;28;20048;-82
2023/01/02 05:41:03;;;;;;;14.25;6.53;;;11.00;99.90;;;;;;5053989;28;20029;-81
2023/01/02 05:43:31;;;;;;;140.52;81.90;;;11.00;99.90;;;;;;5064974;28;20047;-82
2023/01/02 05:45:58;;;;;;;18.67;9.32;;;10.90;99.90;;;;;;5065089;28;20033;-85
2023/01/02 05:48:24;;;;;;;55.90;30.52;;;10.80;99.90;;;;;;5054750;28;20047;-84
2023/01/02 05:50:50;;;;;;;11.00;4.28;;;10.80;99.90;;;;;;5054102;28;20040;-81
2023/01/02 05:53:17;;;;;;;10.13;4.68;;;10.70;99.90;;;;;;5071119;28;20446;-83
2023/01/02 05:55:43;;;;;;;4.53;2.88;;;10.80;99.90;;;;;;5070578;28;20473;-82
2023/01/02 05:58:12;;;;;;;5.55;2.85;;;10.70;99.90;;;;;;5035707;28;20047;-83
2023/01/02 06:00:38;;;;;;;24.23;14.45;;;10.70;99.90;;;;;;5053019;28;20028;-83
2023/01/02 06:03:04;;;;;;;13.30;5.53;;;10.70;99.90;;;;;;5071358;28;20040;-83
2023/01/02 06:05:30;;;;;;;7.35;3.70;;;10.70;99.90;;;;;;5052631;28;20036;-81
2023/01/02 06:07:56;;;;;;;8.52;5.32;;;10.70;99.90;;;;;;5069905;28;20041;-82
2023/01/02 06:10:22;;;;;;;9.65;6.90;;;10.70;99.90;;;;;;5071360;28;20033;-83
2023/01/02 06:12:48;;;;;;;6.75;3.03;;;10.70;99.90;;;;;;5052600;28;20473;-82
2023/01/02 06:15:15;;;;;;;15.90;11.63;;;10.80;99.90;;;;;;5074150;28;20012;-83
2023/01/02 06:17:41;;;;;;;12.02;4.20;;;10.80;99.90;;;;;;5095935;28;20048;-81
2023/01/02 06:20:08;;;;;;;9.20;4.57;;;10.80;99.90;;;;;;5101482;28;20090;-82
2023/01/02 06:22:35;;;;;;;7.63;4.95;;;10.80;99.90;;;;;;5100858;28;20040;-82
2023/01/02 06:25:02;;;;;;;6.15;3.10;;;10.80;99.90;;;;;;5095502;28;20044;-83
2023/01/02 06:27:31;;;;;;;13.27;4.80;;;10.90;99.90;;;;;;5093800;28;20032;-81
2023/01/02 06:29:58;;;;;;;11.65;6.35;;;10.90;99.90;;;;;;5093385;28;20036;-82
2023/01/02 06:32:24;;;;;;;8.68;2.97;;;10.90;99.90;;;;;;5076944;28;20044;-80
2023/01/02 06:34:50;;;;;;;16.75;13.18;;;10.90;99.90;;;;;;5092799;28;20368;-80
2023/01/02 06:37:16;;;;;;;7.65;4.72;;;10.90;99.90;;;;;;5092076;28;20496;-79
2023/01/02 06:39:42;;;;;;;5.85;1.83;;;10.80;99.90;;;;;;5097851;28;20028;-83
2023/01/02 06:42:08;;;;;;;5.18;2.08;;;10.80;99.90;;;;;;5099588;28;20024;-82
2023/01/02 06:44:34;;;;;;;7.85;4.07;;;10.80;99.90;;;;;;5082209;28;20048;-82
2023/01/02 06:47:01;;;;;;;5.13;2.45;;;10.80;99.90;;;;;;5097914;28;20039;-83
2023/01/02 06:49:27;;;;;;;6.20;3.10;;;10.70;99.90;;;;;;5093025;28;20032;-83
2023/01/02 06:51:53;;;;;;;6.28;2.65;;;10.70;99.90;;;;;;5092485;28;20043;-82
2023/01/02 06:54:19;;;;;;;3.97;2.40;;;10.70;99.90;;;;;;5076204;28;20048;-83
2023/01/02 06:56:45;;;;;;;4.15;2.03;;;10.70;99.90;;;;;;5091834;28;20054;-82
2023/01/02 06:59:11;;;;;;;6.55;2.08;;;10.80;99.90;;;;;;5091932;28;20363;-83
2023/01/02 07:01:37;;;;;;;5.40;1.88;;;11.00;99.90;;;;;;5087713;28;20016;-82
2023/01/02 07:04:04;;;;;;;5.60;2.70;;;11.00;99.90;;;;;;5094254;28;20035;-83
2023/01/02 07:06:30;;;;;;;5.78;1.92;;;11.10;99.90;;;;;;5095020;28;20039;-82
2023/01/02 07:08:56;;;;;;;5.28;2.35;;;11.10;99.90;;;;;;5074267;28;20048;-81
2023/01/02 07:11:23;;;;;;;8.23;3.05;;;11.10;99.90;;;;;;5094103;28;20032;-81
2023/01/02 07:13:52;;;;;;;6.70;2.30;;;11.10;99.90;;;;;;5088888;28;20039;-85
2023/01/02 07:16:20;;;;;;;6.05;3.15;;;11.10;99.90;;;;;;5081226;28;20496;-86
2023/01/02 07:18:46;;;;;;;5.15;3.00;;;11.00;99.90;;;;;;5065056;28;20025;-83
2023/01/02 07:21:14;;;;;;;14.73;2.65;;;11.10;99.90;;;;;;5067704;28;20037;-84
2023/01/02 07:23:41;;;;;;;4.93;2.28;;;11.10;99.90;;;;;;5056609;28;20044;-84
2023/01/02 07:26:08;;;;;;;7.45;2.03;;;11.20;99.90;;;;;;5055849;28;20032;-81
2023/01/02 07:28:35;;;;;;;5.68;1.90;;;11.20;99.90;;;;;;5053515;28;20040;-82
2023/01/02 07:31:04;;;;;;;8.20;2.95;;;11.20;99.90;;;;;;5055361;28;20063;-82
2023/01/02 07:33:31;;;;;;;19.45;7.68;;;11.30;99.90;;;;;;5055414;28;20048;-83
2023/01/02 07:35:59;;;;;;;13.57;7.20;;;11.40;99.90;;;;;;5038135;28;20048;-83
2023/01/02 07:38:26;;;;;;;32.70;14.77;;;11.40;99.90;;;;;;5054200;28;20036;-83
2023/01/02 07:40:52;;;;;;;52.08;22.15;;;11.40;99.90;;;;;;5018864;28;20056;-83
2023/01/02 07:43:19;;;;;;;53.45;26.67;;;11.50;99.90;;;;;;5055146;28;20040;-83
2023/01/02 07:45:46;;;;;;;30.40;14.77;;;11.40;99.90;;;;;;5037868;28;20052;-81
2023/01/02 07:48:12;;;;;;;22.20;9.82;;;11.40;99.90;;;;;;5054129;28;20036;-83
2023/01/02 07:50:39;;;;;;;15.50;7.78;;;11.50;99.90;;;;;;5053926;28;20048;-82
2023/01/02 07:53:05;;;;;;;9.50;4.82;;;11.60;99.90;;;;;;5038626;28;20041;-81
2023/01/02 07:55:32;;;;;;;9.85;6.22;;;11.60;99.90;;;;;;5054527;28;20051;-80
2023/01/02 07:57:58;;;;;;;12.70;6.40;;;11.70;99.90;;;;;;5052977;28;20032;-83
2023/01/02 08:00:25;;;;;;;9.13;3.78;;;11.70;99.90;;;;;;5055586;28;20035;-83
2023/01/02 08:02:53;;;;;;;11.88;4.28;;;11.70;99.90;;;;;;5054955;28;20032;-83
2023/01/02 08:05:20;;;;;;;9.05;3.38;;;11.70;99.90;;;;;;5055544;28;20043;-83
2023/01/02 08:07:47;;;;;;;6.20;3.85;;;11.70;99.90;;;;;;5052718;28;20044;-82
2023/01/02 08:10:13;;;;;;;11.88;3.85;;;11.80;99.90;;;;;;5072853;28;20033;-82
2023/01/02 08:12:40;;;;;;;8.02;2.88;;;11.80;99.90;;;;;;5037825;28;20461;-83
2023/01/02 08:15:07;;;;;;;8.70;4.07;;;11.90;99.90;;;;;;5055092;28;20047;-82
2023/01/02 08:17:33;;;;;;;13.23;3.97;;;11.90;99.90;;;;;;5070966;28;20071;-83
2023/01/02 08:19:59;;;;;;;11.30;3.83;;;11.90;99.90;;;;;;5072373;28;20040;-83
2023/01/02 08:22:25;;;;;;;4.65;2.30;;;11.90;99.90;;;;;;5072949;28;20059;-79
2023/01/02 08:24:52;;;;;;;7.25;2.40;;;12.00;99.90;;;;;;5054309;28;20041;-84
2023/01/02 08:27:19;;;;;;;5.50;2.05;;;12.10;99.90;;;;;;5070106;28;20048;-84
2023/01/02 08:29:45;;;;;;;6.00;2.15;;;12.20;99.90;;;;;;5072074;28;20029;-83
2023/01/02 08:32:11;;;;;;;7.25;2.20;;;12.20;99.90;;;;;;5055010;28;20033;-83
2023/01/02 08:34:37;;;;;;;11.20;2.58;;;12.20;99.90;;;;;;5053004;28;20053;-83
2023/01/02 08:37:03;;;;;;;10.05;2.42;;;12.20;99.90;;;;;;5053806;28;20041;-83
2023/01/02 08:39:29;;;;;;;4.60;2.08;;;12.30;99.90;;;;;;5072367;28;20024;-83
2023/01/02 08:41:57;;;;;;;5.60;2.10;;;12.30;99.90;;;;;;5042962;28;20059;-83
2023/01/02 08:44:23;;;;;;;6.60;2.47;;;12.30;99.90;;;;;;5054156;28;20052;-83
2023/01/02 08:46:49;;;;;;;10.00;2.58;;;12.40;99.90;;;;;;5071118;28;20464;-83
2023/01/02 08:49:16;;;;;;;7.78;3.20;;;12.40;99.90;;;;;;5054291;28;20032;-83
2023/01/02 08:51:42;;;;;;;8.32;2.70;;;12.40;99.90;;;;;;5053886;28;20040;-84
2023/01/02 08:54:08;;;;;;;8.57;2.65;;;12.40;99.90;;;;;;5054329;28;20040;-83
2023/01/02 08:56:36;;;;;;;8.45;3.30;;;12.50;99.90;;;;;;5053593;28;20036;-83
2023/01/02 08:59:05;;;;;;;13.45;3.10;;;12.50;99.90;;;;;;5071589;28;20389;-83
2023/01/02 09:01:32;;;;;;;9.18;4.30;;;12.60;99.90;;;;;;5054206;28;20051;-83
2023/01/02 09:03:58;;;;;;;4.88;2.70;;;12.60;99.90;;;;;;5053302;28;20391;-84
2023/01/02 09:06:26;;;;;;;6.78;1.92;;;12.70;99.90;;;;;;5053904;28;20044;-77
2023/01/02 09:08:55;;;;;;;8.95;2.88;;;12.80;99.90;;;;;;5070031;28;20039;-79
2023/01/02 09:11:33;;;;;;;12.45;3.13;;;12.90;99.90;;;;;;5053926;28;20055;-80
2023/01/02 09:14:01;;;;;;;7.70;3.00;;;12.90;99.90;;;;;;5071511;28;20032;-77
2023/01/02 09:16:31;;;;;;;8.52;2.30;;;13.10;99.90;;;;;;5061441;28;20040;-78
2023/01/02 09:19:02;;;;;;;11.07;2.00;;;13.20;99.90;;;;;;5090166;28;20028;-77
2023/01/02 09:21:29;;;;;;;8.63;2.78;;;13.20;99.90;;;;;;5092039;28;20051;-77
2023/01/02 09:23:55;;;;;;;8.18;2.58;;;13.20;99.90;;;;;;5090686;28;20036;-78
2023/01/02 09:26:21;;;;;;;4.85;1.73;;;13.20;99.90;;;;;;5092080;28;20047;-78
2023/01/02 09:28:47;;;;;;;8.70;2.90;;;13.30;99.90;;;;;;5090398;28;20396;-79
2023/01/02 09:31:15;;;;;;;6.70;2.67;;;13.30;99.90;;;;;;5092104;28;20032;-78
2023/01/02 09:33:43;;;;;;;6.18;2.38;;;13.40;99.90;;;;;;5086606;28;20055;-78
2023/01/02 09:36:12;;;;;;;5.97;1.70;;;13.40;99.90;;;;;;5090169;28;20044;-78
2023/01/02 09:38:38;;;;;;;9.77;3.35;;;13.50;99.90;;;;;;5090072;28;20048;-79
2023/01/02 09:41:26;;;;;;;11.48;3.30;;;13.50;99.90;;;;;;5091873;28;20035;-78
2023/01/02 09:44:10;;;;;;;11.32;2.95;;;13.60;99.90;;;;;;5091305;28;20031;-78
2023/01/02 09:46:51;;;;;;;6.05;2.40;;;13.70;99.90;;;;;;5095032;28;20040;-77
2023/01/02 09:49:48;;;;;;;7.68;2.50;;;13.80;99.90;;;;;;5091828;28;20032;-77
2023/01/02 09:52:35;;;;;;;7.45;2.30;;;14.00;99.90;;;;;;5057134;28;20047;-78
2023/01/02 09:55:12;;;;;;;9.48;2.30;;;14.10;99.90;;;;;;5089804;28;20040;-78
2023/01/02 09:57:46;;;;;;;12.55;2.17;;;14.30;99.90;;;;;;5083904;28;20032;-77
2023/01/02 10:00:21;;;;;;;5.15;2.28;;;14.50;99.90;;;;;;5090888;28;20492;-78
2023/01/02 10:03:00;;;;;;;7.32;1.77;;;14.60;99.90;;;;;;5094947;28;20082;-77
2023/01/02 10:05:57;;;;;;;10.27;2.60;;;14.80;99.90;;;;;;5094145;28;20043;-78
2023/01/02 10:08:47;;;;;;;6.38;2.28;;;14.80;99.90;;;;;;5090783;28;20476;-77
2023/01/02 10:11:26;;;;;;;7.35;2.28;;;14.90;99.90;;;;;;5094903;28;20047;-79
2023/01/02 10:14:06;;;;;;;11.88;2.85;;;15.10;99.90;;;;;;5093726;28;20059;-79
2023/01/02 10:16:39;;;;;;;10.80;2.50;;;15.30;99.90;;;;;;5093679;28;20048;-77
2023/01/02 10:19:31;;;;;;;8.10;2.08;;;15.60;99.90;;;;;;5095012;28;20028;-77
2023/01/02 10:22:00;;;;;;;10.10;3.22;;;15.70;99.90;;;;;;5057661;28;20036;-78
2023/01/02 10:24:53;;;;;;;6.03;1.90;;;15.60;99.90;;;;;;5095046;28;20032;-78
2023/01/02 10:27:31;;;;;;;8.20;2.30;;;15.40;99.90;;;;;;5092577;28;20028;-78
2023/01/02 10:30:05;;;;;;;7.97;1.95;;;15.50;99.90;;;;;;5093089;28;20047;-78
2023/01/02 10:32:34;;;;;;;4.05;1.65;;;15.70;99.90;;;;;;5093594;28;20040;-78
2023/01/02 10:35:06;;;;;;;7.68;2.75;;;15.80;99.90;;;;;;5094273;28;20032;-78
2023/01/02 10:37:33;;;;;;;5.40;1.90;;;15.80;99.90;;;;;;5090177;28;20032;-78
2023/01/02 10:40:00;;;;;;;9.15;2.30;;;15.90;99.90;;;;;;5094341;28;20488;-78
2023/01/02 10:42:27;;;;;;;9.82;3.55;;;16.10;99.90;;;;;;5097219;28;20039;-78
2023/01/02 10:44:53;;;;;;;8.25;2.05;;;16.20;99.90;;;;;;5098963;28;20409;-79
2023/01/02 10:47:39;;;;;;;7.22;2.70;;;16.10;99.90;;;;;;5093303;28;20039;-78
2023/01/02 10:50:26;;;;;;;6.70;2.58;;;16.10;99.90;;;;;;5102178;28;20032;-78
2023/01/02 10:53:22;;;;;;;9.48;2.22;;;15.90;99.90;;;;;;5097826;28;20044;-78
2023/01/02 10:55:48;;;;;;;8.63;2.85;;;15.70;99.90;;;;;;5092593;28;20059;-78
2023/01/02 10:58:21;;;;;;;18.95;2.13;;;15.60;99.90;;;;;;5093282;28;20043;-81
2023/01/02 11:00:50;;;;;;;6.03;1.30;;;15.60;99.90;;;;;;5092707;28;20047;-79
2023/01/02 11:03:21;;;;;;;6.38;1.50;;;15.60;99.90;;;;;;5094518;28;20392;-79
2023/01/02 11:05:50;;;;;;;6.10;1.63;;;15.50;99.90;;;;;;5092265;28;20051;-79
2023/01/02 11:08:20;;;;;;;4.50;1.95;;;15.40;99.90;;;;;;5087624;28;20048;-80
2023/01/02 11:10:47;;;;;;;7.15;1.25;;;15.30;99.90;;;;;;5086763;28;20495;-81
2023/01/02 11:13:16;;;;;;;4.80;1.77;;;15.10;99.90;;;;;;5088774;28;20035;-79
2023/01/02 11:16:01;;;;;;;6.88;1.67;;;14.90;99.90;;;;;;5083579;28;20033;-80
2023/01/02 11:18:31;;;;;;;8.43;1.75;;;14.70;99.90;;;;;;5084201;28;20397;-79
2023/01/02 11:21:03;;;;;;;3.90;1.02;;;14.70;99.90;;;;;;5082989;28;20107;-78
2023/01/02 11:23:34;;;;;;;10.85;1.85;;;14.70;99.90;;;;;;5085768;28;20028;-78
2023/01/02 11:26:02;;;;;;;4.32;1.77;;;14.60;99.90;;;;;;5082361;28;20047;-78
2023/01/02 11:28:33;;;;;;;8.13;1.50;;;14.60;99.90;;;;;;5085995;28;20028;-79
2023/01/02 11:31:04;;;;;;;4.57;1.27;;;14.60;99.90;;;;;;5085148;28;20032;-79
2023/01/02 11:33:34;;;;;;;;;;;14.60;99.90;;;;;;5079072;28;20039;-79
2023/01/02 11:36:03;;;;;;;7.83;2.07;;;14.70;99.90;;;;;;5093459;28;20272;-79
2023/01/02 11:38:46;;;;;;;6.18;1.55;;;14.70;99.90;;;;;;5091086;28;20051;-79
2023/01/02 11:43:47;;;;;;;3.80;1.30;;;14.80;99.90;;;;;;5092574;28;20039;-80
2023/01/02 11:44:41;;;;;;;7.97;2.50;;;14.60;99.90;;;;;;5093726;28;20040;-81
2023/01/02 11:47:11;;;;;;;8.65;1.60;;;14.60;99.90;;;;;;5090830;28;20028;-83
2023/01/02 11:49:42;;;;;;;2.83;0.93;;;14.50;99.90;;;;;;5093665;28;20032;-82
2023/01/02 11:52:15;;;;;;;7.38;1.95;;;14.60;99.90;;;;;;5074313;28;20040;-79
2023/01/02 11:55:17;;;;;;;4.40;1.60;;;14.50;99.90;;;;;;5093343;28;20414;-79
2023/01/02 11:57:58;;;;;;;3.35;1.80;;;14.50;99.90;;;;;;5069097;28;20051;-79
2023/01/02 12:00:30;;;;;;;5.50;1.77;;;14.50;99.90;;;;;;5092582;28;20032;-80
2023/01/02 12:03:05;;;;;;;5.43;1.33;;;14.50;99.90;;;;;;5084992;28;20056;-81
2023/01/02 12:05:37;;;;;;;6.05;1.63;;;14.50;99.90;;;;;;5086258;28;20043;-79
2023/01/02 12:08:29;;;;;;;6.18;1.27;;;14.40;99.90;;;;;;5090066;28;20040;-79
2023/01/02 12:11:13;;;;;;;6.18;1.98;;;14.40;99.90;;;;;;5082221;28;20401;-78
2023/01/02 12:13:45;;;;;;;6.55;2.22;;;14.40;99.90;;;;;;5091655;28;20067;-76
2023/01/02 12:16:36;;;;;;;8.20;1.70;;;14.40;99.90;;;;;;5084809;28;20056;-80
2023/01/02 12:19:02;;;;;;;4.65;1.38;;;14.30;99.90;;;;;;5092447;28;20039;-79
2023/01/02 12:21:50;;;;;;;5.05;1.83;;;14.20;99.90;;;;;;5091965;28;20465;-78
2023/01/02 12:24:29;;;;;;;3.65;2.03;;;14.10;99.90;;;;;;5092552;28;20032;-77
2023/01/02 12:27:27;;;;;;;6.25;1.67;;;13.90;99.90;;;;;;5091003;28;20492;-77
2023/01/02 12:30:07;;;;;;;7.88;2.10;;;13.80;99.90;;;;;;5087868;28;20690;-78
2023/01/02 12:32:43;;;;;;;5.05;1.88;;;13.70;99.90;;;;;;5092351;28;20384;-80
2023/01/02 12:35:15;;;;;;;6.38;1.88;;;13.60;99.90;;;;;;5086419;28;20032;-78
2023/01/02 12:37:58;;;;;;;6.00;1.80;;;13.50;99.90;;;;;;5090162;28;20039;-80
2023/01/02 12:40:35;;;;;;;7.53;2.28;;;13.40;99.90;;;;;;5091462;28;20035;-77
2023/01/02 12:43:07;;;;;;;5.20;2.17;;;13.30;99.90;;;;;;5091957;28;20027;-78
2023/01/02 12:45:39;;;;;;;7.90;1.75;;;13.20;1.00;;;;;;5092370;28;20028;-78
2023/01/02 12:48:20;;;;;;;6.22;1.50;;;13.20;1.00;;;;;;5090682;28;20408;-78
2023/01/02 12:51:04;;;;;;;4.80;1.63;;;13.20;1.00;;;;;;5092556;28;20027;-78
2023/01/02 12:54:12;;;;;;;10.82;3.13;;;13.10;1.00;;;;;;5085531;28;20067;-76
2023/01/02 12:56:46;;;;;;;4.50;1.77;;;13.10;1.00;;;;;;5081912;28;20048;-78
2023/01/02 12:59:40;;;;;;;7.35;2.70;;;13.00;1.00;;;;;;5091934;28;20028;-78
2023/01/02 13:02:43;;;;;;;6.88;1.92;;;13.00;1.00;;;;;;5091395;28;20413;-79
2023/01/02 13:05:15;;;;;;;6.95;2.35;;;13.00;1.00;;;;;;5090500;28;20039;-80
2023/01/02 13:07:51;;;;;;;3.33;1.27;;;13.10;1.00;;;;;;5089061;28;20067;-80
2023/01/02 13:10:24;;;;;;;6.60;2.85;;;13.10;1.00;;;;;;5090750;28;20045;-80